createdAt,value
2023-04-15T00:04:53.694Z,8.60
2023-04-15T00:13:18.681Z,7.80
2023-04-15T00:21:42.794Z,8.40
2023-04-15T00:30:27.860Z,7.90
2023-04-15T00:38:51.537Z,7.70
2023-04-15T00:47:15.847Z,10.50
2023-04-15T00:55:40.578Z,9.20
2023-04-15T01:04:05.987Z,9.90
2023-04-15T01:12:39.726Z,10.80
2023-04-15T01:21:07.405Z,9.90
2023-04-15T01:29:37.079Z,11.90
2023-04-15T01:38:17.513Z,10.50
2023-04-15T01:46:59.550Z,10.60
2023-04-15T01:55:27.227Z,11.50
2023-04-15T02:03:51.513Z,10.90
2023-04-15T02:12:18.615Z,12.10
2023-04-15T02:20:45.902Z,11.60
2023-04-15T02:29:17.192Z,10.90
2023-04-15T02:37:45.996Z,11.50
2023-04-15T02:46:15.559Z,10.40
2023-04-15T02:54:39.584Z,10.90
2023-04-15T03:03:05.459Z,11.80
2023-04-15T03:11:31.783Z,9.50
2023-04-15T03:19:57.313Z,11.00
2023-04-15T03:28:21.074Z,9.50
2023-04-15T03:36:45.126Z,10.10
2023-04-15T03:45:09.424Z,10.10
2023-04-15T03:53:33.454Z,9.70
2023-04-15T04:01:57.995Z,10.30
2023-04-15T04:10:23.411Z,9.80
2023-04-15T04:18:46.956Z,10.70
2023-04-15T04:27:10.354Z,10.60
2023-04-15T04:35:35.185Z,10.70
2023-04-15T04:43:58.517Z,10.80
2023-04-15T04:52:22.604Z,10.00
2023-04-15T05:00:46.123Z,9.90
2023-04-15T05:09:30.095Z,8.80
2023-04-15T05:18:03.708Z,10.30
2023-04-15T05:26:28.425Z,10.50
2023-04-15T05:34:52.378Z,9.40
2023-04-15T05:43:18.184Z,10.40
2023-04-15T05:51:41.527Z,10.60
2023-04-15T06:00:30.132Z,12.40
2023-04-15T06:08:56.349Z,10.20
2023-04-15T13:13:37.299Z,2.00
2023-04-15T13:22:00.228Z,2.10
2023-04-15T13:30:23.975Z,2.00
2023-04-15T13:38:48.654Z,1.10
2023-04-15T13:47:28.696Z,2.00
2023-04-15T13:55:52.059Z,1.20
2023-04-15T14:04:16.160Z,2.10
2023-04-15T14:12:39.384Z,1.10
2023-04-15T14:22:02.171Z,1.70
2023-04-15T14:31:01.553Z,3.90
2023-04-15T14:39:39.705Z,2.10
2023-04-15T14:48:12.751Z,1.60
2023-04-15T14:56:36.431Z,2.90
2023-04-15T15:05:01.313Z,2.70
2023-04-15T15:13:26.006Z,2.70
2023-04-15T15:21:49.295Z,1.90
2023-04-15T15:30:13.367Z,3.30
2023-04-15T15:38:41.887Z,3.60
2023-04-15T15:47:12.543Z,1.60
